Portada
METAR-TAF:

METAR-TAF

Aeroports :

Rock Hill/York County Airport (Bryant Field)

Rock Hill, Carolina del Sud, Estats Units d'Amèrica

latitud: 34-59-02N, longitud: 081-03-21W, altitud: 204 m

Observació

L'informe es va fer fa 22 minuts, a les 13:54 UTC
Vent 6 kt del Sud-Oest
Temperatura 21°C
Humitat 83%
Pressió 1018 hPa
Visibilitat: 16.1 km
Cel clar

METAR: KUZA 241354Z AUTO 23006KT 10SM CLR 21/18 A3006 RMK AO2 SLP171 T02110183

Hora: 10:16 (14:16 UTC)


TAF: manca

Observacions i pronòstics meteorològics de més de 4000 aeroports (METAR i TAF).

Les estacions disponibles són els punts grocs i vermells al mapa.

Posi el ratolí al punt desitjat per veure el nom de l'estació.

Feu clic per veure les observacions i els pronòstics meteorològics.

Per canviar el mapa: feu clic els botons verds amb una creu de color negre per apropar; al botó verd amb un guió per allunyar la imatge; o en les fletxes verdes per a mapes adjacents.


METAR-TAF: